createdAt,value
2022-12-18T00:02:40.299Z,27.88
2022-12-18T00:07:45.851Z,32.78
2022-12-18T00:12:49.957Z,73.72
2022-12-18T00:17:54.580Z,43.65
2022-12-18T00:22:59.932Z,40.47
2022-12-18T00:28:05.139Z,34.78
2022-12-18T00:33:11.722Z,44.47
2022-12-18T00:38:17.447Z,38.95
2022-12-18T00:43:21.481Z,64.13
2022-12-18T00:48:25.652Z,95.35
2022-12-18T00:53:31.106Z,88.43
2022-12-18T00:58:38.291Z,91.00
2022-12-18T01:03:42.837Z,77.13
2022-12-18T01:08:49.131Z,66.45
2022-12-18T01:13:54.708Z,94.25
2022-12-18T01:18:59.883Z,92.50
2022-12-18T01:24:08.427Z,75.47
2022-12-18T01:29:12.412Z,63.42
2022-12-18T01:34:16.908Z,73.55
2022-12-18T01:39:23.444Z,63.33
2022-12-18T01:44:57.478Z,58.80
2022-12-18T01:50:05.392Z,51.40
2022-12-18T01:55:12.586Z,50.63
2022-12-18T02:00:20.730Z,52.47
2022-12-18T02:05:39.253Z,46.28
2022-12-18T02:10:52.013Z,62.05
2022-12-18T02:16:12.556Z,53.05
2022-12-18T02:21:30.013Z,42.08
2022-12-18T02:26:40.597Z,37.30
2022-12-18T02:31:50.170Z,33.00
2022-12-18T02:42:08.979Z,32.17
2022-12-18T02:47:15.013Z,28.75
2022-12-18T02:52:27.763Z,22.13
2022-12-18T02:57:39.877Z,17.17
2022-12-18T03:02:49.869Z,18.17
2022-12-18T03:08:00.133Z,19.17
2022-12-18T03:13:14.299Z,20.08
2022-12-18T03:18:22.823Z,18.48
2022-12-18T03:23:31.960Z,16.15
2022-12-18T03:28:40.988Z,17.75
2022-12-18T03:33:49.874Z,22.60
2022-12-18T03:39:03.517Z,20.40
2022-12-18T03:44:16.903Z,16.88
2022-12-18T03:49:28.706Z,14.57
2022-12-18T03:54:36.764Z,13.80
2022-12-18T03:59:54.374Z,17.77
2022-12-18T04:05:07.185Z,17.45
2022-12-18T04:10:16.906Z,15.40
2022-12-18T04:15:27.976Z,15.38
2022-12-18T04:20:33.101Z,21.67
2022-12-18T04:25:37.391Z,13.82
2022-12-18T04:30:50.537Z,12.60
2022-12-18T04:35:54.822Z,13.82
2022-12-18T04:40:58.991Z,14.05
2022-12-18T04:46:07.416Z,12.20
2022-12-18T04:51:11.345Z,11.98
2022-12-18T04:56:17.790Z,10.82
2022-12-18T05:01:23.616Z,14.35
2022-12-18T05:06:28.097Z,12.88
2022-12-18T05:11:32.779Z,15.02
2022-12-18T05:16:38.313Z,16.92
2022-12-18T05:21:42.342Z,15.70
2022-12-18T05:26:46.604Z,19.42
2022-12-18T05:31:51.968Z,17.65
2022-12-18T05:36:56.029Z,23.23
2022-12-18T05:42:00.014Z,24.05
2022-12-18T05:47:05.934Z,27.95
2022-12-18T05:52:11.978Z,25.45
2022-12-18T05:57:16.103Z,25.80
2022-12-18T06:02:22.202Z,21.63
2022-12-18T06:07:26.483Z,24.80
2022-12-18T06:12:30.664Z,16.20
2022-12-18T06:17:36.945Z,19.92
2022-12-18T06:22:41.024Z,19.10
2022-12-18T06:27:47.848Z,22.17
2022-12-18T06:32:56.766Z,28.50
2022-12-18T06:38:03.350Z,35.60
2022-12-18T06:43:07.941Z,15.30
2022-12-18T06:48:13.738Z,16.00
2022-12-18T06:53:17.812Z,21.52
2022-12-18T06:58:23.352Z,25.90
2022-12-18T07:03:28.950Z,24.23
2022-12-18T07:08:33.577Z,25.88
2022-12-18T07:13:37.872Z,25.02
2022-12-18T07:18:43.716Z,31.67
2022-12-18T07:23:49.499Z,25.38
2022-12-18T07:28:58.651Z,18.23
2022-12-18T07:34:04.148Z,27.75
2022-12-18T07:39:09.664Z,25.20
2022-12-18T07:44:13.983Z,39.92
2022-12-18T07:49:19.570Z,35.88
2022-12-18T07:54:23.869Z,47.72
2022-12-18T07:59:28.447Z,18.30
2022-12-18T08:04:37.163Z,15.50
2022-12-18T08:09:41.190Z,26.40
2022-12-18T08:14:45.497Z,26.77
2022-12-18T08:19:53.150Z,24.48
2022-12-18T08:24:57.235Z,31.50
2022-12-18T08:30:01.461Z,27.73
2022-12-18T08:35:08.474Z,31.52
2022-12-18T08:40:14.233Z,33.13
2022-12-18T08:45:18.640Z,29.30
2022-12-18T08:50:24.312Z,26.58
2022-12-18T08:55:28.488Z,25.98
2022-12-18T09:00:35.608Z,26.15
2022-12-18T09:05:41.121Z,23.52
2022-12-18T09:10:46.811Z,23.58
2022-12-18T09:15:52.924Z,20.80
2022-12-18T09:21:10.808Z,30.42
2022-12-18T09:26:15.509Z,22.88
2022-12-18T09:31:27.749Z,23.55
2022-12-18T09:36:34.276Z,23.23
2022-12-18T09:41:55.465Z,30.55
2022-12-18T09:47:12.480Z,29.85
2022-12-18T09:52:28.595Z,20.42
2022-12-18T09:57:35.666Z,24.80
2022-12-18T10:02:39.966Z,27.35
2022-12-18T10:07:56.290Z,24.80
2022-12-18T10:13:11.951Z,24.23
2022-12-18T10:18:28.507Z,18.35
2022-12-18T10:23:47.831Z,19.67
2022-12-18T10:28:54.494Z,26.70
2022-12-18T10:34:00.239Z,25.85
2022-12-18T10:39:20.439Z,31.77
2022-12-18T10:44:31.637Z,26.00
2022-12-18T10:49:38.332Z,32.22
2022-12-18T10:54:50.468Z,31.05
2022-12-18T10:59:58.013Z,25.73
2022-12-18T11:05:27.962Z,25.05
2022-12-18T11:10:36.107Z,34.83
2022-12-18T11:15:43.805Z,26.30
2022-12-18T11:20:58.302Z,35.47
2022-12-18T11:26:07.100Z,29.48
2022-12-18T11:31:19.105Z,23.52
2022-12-18T11:36:24.900Z,26.33
2022-12-18T11:41:52.587Z,22.83
2022-12-18T11:47:02.603Z,23.58
2022-12-18T11:52:17.579Z,27.77
2022-12-18T11:57:35.952Z,34.72
2022-12-18T12:02:52.074Z,31.42
2022-12-18T12:08:04.267Z,25.52
2022-12-18T12:13:25.870Z,34.92
2022-12-18T12:18:40.491Z,32.78
2022-12-18T12:23:53.873Z,35.30
2022-12-18T12:29:20.978Z,40.33
2022-12-18T12:34:33.276Z,44.88
2022-12-18T12:39:40.013Z,41.13
2022-12-18T12:44:55.788Z,25.83
2022-12-18T12:50:02.522Z,32.42
2022-12-18T12:55:18.470Z,28.08
2022-12-18T13:00:26.915Z,26.75
2022-12-18T13:05:39.266Z,31.20
2022-12-18T13:10:44.279Z,26.42
2022-12-18T13:15:52.159Z,52.92
2022-12-18T13:21:06.236Z,34.03
2022-12-18T13:26:40.477Z,29.45
2022-12-18T13:32:02.868Z,34.35
2022-12-18T13:37:47.328Z,24.13
2022-12-18T13:43:09.218Z,29.17
2022-12-18T13:48:29.578Z,27.77
2022-12-18T13:53:41.957Z,44.42
2022-12-18T13:58:48.319Z,42.10
2022-12-18T14:04:10.484Z,31.50
2022-12-18T14:09:21.387Z,40.30
2022-12-18T14:14:32.383Z,41.85
2022-12-18T14:19:40.418Z,25.65
2022-12-18T14:24:44.598Z,31.48
2022-12-18T14:29:48.774Z,24.17
2022-12-18T14:34:56.415Z,37.47
2022-12-18T14:40:08.761Z,31.05
2022-12-18T14:45:43.059Z,36.50
2022-12-18T14:50:59.994Z,28.13
2022-12-18T14:56:05.918Z,30.38
2022-12-18T15:01:12.668Z,28.40
2022-12-18T15:06:30.128Z,27.50
2022-12-18T15:11:45.740Z,41.03
2022-12-18T15:16:54.272Z,45.45
2022-12-18T15:22:06.111Z,51.40
2022-12-18T15:27:24.646Z,56.90
2022-12-18T15:32:30.464Z,48.38
2022-12-18T15:37:45.122Z,48.00
2022-12-18T15:43:11.099Z,34.97
2022-12-18T15:48:24.495Z,28.60
2022-12-18T15:53:34.618Z,37.42
2022-12-18T15:58:39.509Z,38.55
2022-12-18T16:03:44.402Z,30.00
2022-12-18T16:08:50.913Z,46.92
2022-12-18T16:13:55.475Z,70.35
2022-12-18T16:19:00.803Z,70.85
2022-12-18T16:24:12.950Z,66.25
2022-12-18T16:29:17.575Z,40.40
2022-12-18T16:34:26.777Z,45.20
2022-12-18T16:39:35.732Z,86.10
2022-12-18T16:44:41.347Z,64.72
2022-12-18T16:49:47.135Z,51.38
2022-12-18T16:54:54.995Z,32.17
2022-12-18T17:00:04.664Z,31.77
2022-12-18T17:05:13.201Z,28.15
2022-12-18T17:10:19.119Z,36.72
2022-12-18T17:15:24.773Z,28.48
2022-12-18T17:20:29.355Z,29.50
2022-12-18T17:25:35.072Z,35.83
2022-12-18T17:30:42.379Z,27.80
2022-12-18T17:35:49.785Z,26.33
2022-12-18T17:41:01.695Z,28.42
2022-12-18T17:46:10.598Z,31.70
2022-12-18T17:51:19.571Z,39.63
2022-12-18T17:56:26.620Z,54.13
2022-12-18T18:01:32.722Z,95.15
2022-12-18T18:06:39.093Z,106.55
2022-12-18T18:12:02.294Z,45.28
2022-12-18T18:17:07.786Z,42.42
2022-12-18T18:22:13.457Z,55.22
2022-12-18T18:27:20.391Z,60.42
2022-12-18T18:32:24.729Z,57.50
2022-12-18T18:37:29.758Z,66.30
2022-12-18T18:42:35.793Z,53.33
2022-12-18T18:47:39.900Z,60.42
2022-12-18T18:52:44.668Z,49.05
2022-12-18T18:57:50.462Z,53.92
2022-12-18T19:03:00.346Z,54.72
2022-12-18T19:08:05.002Z,48.78
2022-12-18T19:13:24.570Z,53.67
2022-12-18T19:18:29.275Z,46.95
2022-12-18T19:23:34.945Z,57.60
2022-12-18T19:28:41.242Z,59.85
2022-12-18T19:33:48.686Z,46.50
2022-12-18T19:38:56.201Z,44.80
2022-12-18T19:44:07.748Z,35.45
2022-12-18T19:49:17.528Z,38.83
2022-12-18T19:54:22.719Z,44.65
2022-12-18T19:59:28.931Z,32.70
2022-12-18T20:04:33.510Z,39.78
2022-12-18T20:09:38.387Z,34.92
2022-12-18T20:14:44.137Z,35.58
2022-12-18T20:19:49.538Z,53.67
2022-12-18T20:24:53.871Z,55.40
2022-12-18T20:29:59.735Z,38.28
2022-12-18T20:35:04.128Z,39.47
2022-12-18T20:40:10.956Z,43.55
2022-12-18T20:45:18.843Z,34.75
2022-12-18T20:50:25.610Z,38.78
2022-12-18T20:55:30.111Z,41.45
2022-12-18T21:00:37.628Z,37.38
2022-12-18T21:05:42.396Z,28.50
2022-12-18T21:10:46.843Z,26.35
2022-12-18T21:15:55.547Z,29.10
2022-12-18T21:20:59.951Z,29.25
2022-12-18T21:26:17.139Z,21.77
2022-12-18T21:31:23.446Z,17.38
2022-12-18T21:36:27.788Z,21.27
2022-12-18T21:41:49.327Z,22.65
2022-12-18T21:47:04.568Z,16.58
2022-12-18T21:52:16.127Z,20.23
2022-12-18T21:57:20.106Z,17.38
2022-12-18T22:02:26.801Z,13.07
2022-12-18T22:07:31.156Z,18.90
2022-12-18T22:12:44.167Z,14.00
2022-12-18T22:17:58.133Z,20.38
2022-12-18T22:23:06.263Z,14.82
2022-12-18T22:28:28.869Z,12.85
2022-12-18T22:33:34.883Z,14.88
2022-12-18T22:38:38.884Z,16.45
2022-12-18T22:43:42.888Z,18.20
2022-12-18T22:48:48.270Z,16.27
2022-12-18T22:53:52.185Z,17.83
2022-12-18T22:58:56.162Z,15.15
2022-12-18T23:04:04.904Z,18.90
2022-12-18T23:09:14.629Z,15.30
2022-12-18T23:14:18.581Z,15.00
2022-12-18T23:19:24.691Z,17.05
2022-12-18T23:24:31.303Z,15.07
2022-12-18T23:29:37.752Z,15.40
2022-12-18T23:34:43.838Z,21.27
2022-12-18T23:39:48.716Z,17.70
2022-12-18T23:44:53.150Z,20.75
2022-12-18T23:49:58.741Z,18.40
2022-12-18T23:55:03.057Z,15.98
